Time;durP1;ratioP1;P1;durP2;ratioP2;P2;SDS_P1;SDS_P2;PMS_P1;PMS_P2;Temp;Humidity;BMP_temperature;BMP_pressure;BME280_temperature;BME280_humidity;BME280_pressure;Samples;Min_cycle;Max_cycle;Signal;HPM_P1;HPM_P2
2021/11/12 00:04:06;;;;;;;42.40;29.70;;;6.70;84.20;;;;;;5053708;28;20445;-65
2021/11/12 00:12:21;;;;;;;40.07;27.80;;;6.70;84.90;;;;;;5053653;28;20460;-66
2021/11/12 00:14:50;;;;;;;41.00;28.20;;;6.70;85.20;;;;;;5052982;28;21004;-65
2021/11/12 00:17:18;;;;;;;44.27;28.70;;;6.70;85.50;;;;;;5053535;28;20866;-65
2021/11/12 00:19:46;;;;;;;38.17;26.43;;;6.70;85.70;;;;;;5053376;28;20481;-65
2021/11/12 00:22:15;;;;;;;33.90;25.50;;;6.60;85.90;;;;;;5053217;28;20444;-65
2021/11/12 00:24:42;;;;;;;42.03;24.20;;;6.60;86.30;;;;;;5052823;28;20481;-65
2021/11/12 00:27:09;;;;;;;33.90;24.23;;;6.60;86.40;;;;;;5053048;28;20850;-65
2021/11/12 00:29:41;;;;;;;31.43;23.47;;;6.60;86.60;;;;;;5052823;28;20443;-65
2021/11/12 00:32:14;;;;;;;32.80;25.30;;;6.60;87.50;;;;;;5053276;28;20438;-65
2021/11/12 00:37:42;;;;;;;31.40;22.33;;;6.60;87.00;;;;;;5053223;28;20405;-65
2021/11/12 00:40:14;;;;;;;33.60;23.33;;;6.60;87.00;;;;;;5053955;28;20877;-65
2021/11/12 00:42:44;;;;;;;34.03;23.57;;;6.50;87.00;;;;;;5052948;28;20949;-65
2021/11/12 00:45:17;;;;;;;30.37;22.30;;;6.50;87.30;;;;;;5052904;28;20989;-65
2021/11/12 00:47:48;;;;;;;26.80;21.90;;;6.50;87.30;;;;;;5053108;28;20996;-65
2021/11/12 00:50:40;;;;;;;29.53;21.27;;;6.50;87.40;;;;;;5053215;28;20469;-66
2021/11/12 00:55:54;;;;;;;31.03;22.10;;;6.50;87.30;;;;;;5053002;28;20405;-65
2021/11/12 00:58:21;;;;;;;31.20;21.23;;;6.50;87.20;;;;;;5053047;28;20813;-65
2021/11/12 01:00:48;;;;;;;29.37;21.73;;;6.50;87.30;;;;;;5053161;28;20449;-65
2021/11/12 01:03:14;;;;;;;26.20;21.10;;;6.50;87.40;;;;;;5052569;28;20473;-65
2021/11/12 01:05:42;;;;;;;30.03;20.93;;;6.50;87.40;;;;;;5052848;28;20473;-65
2021/11/12 01:08:10;;;;;;;26.13;20.10;;;6.50;87.30;;;;;;5052518;28;20452;-66
2021/11/12 01:10:37;;;;;;;26.90;19.90;;;6.40;87.20;;;;;;5052768;28;20449;-65
2021/11/12 01:13:05;;;;;;;30.43;21.00;;;6.40;87.20;;;;;;5052859;28;20568;-65
2021/11/12 01:15:31;;;;;;;29.13;22.40;;;6.40;87.30;;;;;;5052969;28;20444;-65
2021/11/12 01:17:58;;;;;;;26.13;21.30;;;6.40;87.30;;;;;;5052822;28;20446;-65
2021/11/12 01:20:25;;;;;;;24.90;20.60;;;6.40;87.20;;;;;;5052819;28;20445;-65
2021/11/12 01:22:52;;;;;;;27.17;21.40;;;6.40;87.20;;;;;;5052378;28;20456;-65
2021/11/12 01:25:23;;;;;;;28.97;22.03;;;6.40;87.90;;;;;;5052508;28;21004;-65
2021/11/12 01:27:50;;;;;;;26.60;21.07;;;6.40;87.10;;;;;;5052777;28;20434;-65
2021/11/12 01:30:18;;;;;;;27.93;21.00;;;6.40;87.10;;;;;;5052956;28;20452;-65
2021/11/12 01:32:46;;;;;;;25.87;20.87;;;6.40;86.90;;;;;;5052383;28;20437;-65
2021/11/12 01:35:13;;;;;;;23.77;19.13;;;6.40;86.60;;;;;;5052892;28;20441;-65
2021/11/12 01:37:42;;;;;;;25.80;20.27;;;6.30;86.30;;;;;;5056827;28;20797;-65
2021/11/12 01:40:18;;;;;;;25.10;19.50;;;6.30;86.20;;;;;;5056423;28;20453;-65
2021/11/12 01:43:06;;;;;;;24.50;19.43;;;6.30;86.10;;;;;;5056229;28;20538;-66
2021/11/12 01:51:07;;;;;;;27.93;20.37;;;6.20;86.10;;;;;;5054206;28;20433;-65
2021/11/12 01:53:37;;;;;;;27.97;21.40;;;6.30;86.30;;;;;;5056063;28;20473;-65
2021/11/12 01:56:25;;;;;;;25.23;19.33;;;6.20;86.10;;;;;;5056322;28;20442;-65
2021/11/12 01:59:08;;;;;;;26.97;20.20;;;6.20;86.30;;;;;;5056069;28;20441;-65
2021/11/12 02:01:39;;;;;;;24.67;20.00;;;6.20;86.30;;;;;;5055987;28;20434;-65
2021/11/12 02:04:09;;;;;;;26.20;20.50;;;6.20;86.50;;;;;;5056097;28;20526;-65
2021/11/12 02:06:36;;;;;;;28.67;21.23;;;6.20;86.50;;;;;;5055903;28;20568;-65
2021/11/12 02:09:11;;;;;;;26.77;20.33;;;6.20;86.50;;;;;;5055434;28;20959;-65
2021/11/12 02:11:37;;;;;;;24.90;20.17;;;6.20;86.70;;;;;;5055670;28;20433;-65
2021/11/12 02:14:07;;;;;;;26.30;20.47;;;6.10;86.70;;;;;;5055552;28;20476;-65
2021/11/12 02:16:37;;;;;;;26.53;20.73;;;6.10;86.90;;;;;;5055643;28;20450;-65
2021/11/12 02:19:05;;;;;;;19.90;17.77;;;6.10;87.10;;;;;;5056180;28;20430;-65
2021/11/12 02:21:38;;;;;;;21.73;18.17;;;6.10;87.30;;;;;;5055592;28;20457;-65
2021/11/12 02:24:07;;;;;;;23.43;19.07;;;6.10;87.30;;;;;;5055510;28;20470;-65
2021/11/12 02:26:35;;;;;;;18.77;16.23;;;6.10;87.30;;;;;;5055298;28;20481;-65
2021/11/12 02:29:04;;;;;;;20.60;17.53;;;6.10;87.50;;;;;;5055322;28;20549;-65
2021/11/12 02:31:31;;;;;;;19.33;15.90;;;6.10;87.60;;;;;;5055251;28;20480;-65
2021/11/12 02:34:04;;;;;;;20.70;17.20;;;6.00;87.70;;;;;;5055147;28;20458;-65
2021/11/12 02:36:31;;;;;;;20.57;16.87;;;6.00;87.90;;;;;;5054889;28;20775;-65
2021/11/12 02:39:00;;;;;;;19.60;17.10;;;6.00;88.00;;;;;;5055120;28;20446;-65
2021/11/12 02:41:27;;;;;;;20.10;16.80;;;6.00;88.00;;;;;;5055066;28;20457;-65
2021/11/12 02:43:54;;;;;;;21.37;17.20;;;6.00;88.10;;;;;;5055173;28;20480;-65
2021/11/12 02:46:23;;;;;;;20.73;16.83;;;6.00;88.10;;;;;;5054430;28;20489;-65
2021/11/12 02:48:51;;;;;;;20.90;18.33;;;6.00;88.10;;;;;;5054918;28;20453;-65
2021/11/12 02:51:22;;;;;;;22.23;17.53;;;6.00;88.20;;;;;;5054913;28;20458;-65
2021/11/12 02:53:50;;;;;;;18.77;16.77;;;6.00;88.10;;;;;;5054967;28;20476;-65
2021/11/12 02:56:26;;;;;;;19.67;16.40;;;6.00;88.00;;;;;;5054547;28;21016;-65
2021/11/12 02:58:54;;;;;;;21.83;16.47;;;6.00;87.90;;;;;;5054849;28;20500;-66
2021/11/12 03:01:23;;;;;;;21.50;16.03;;;5.90;87.70;;;;;;5054814;28;20490;-65
2021/11/12 03:03:50;;;;;;;20.53;16.80;;;5.90;87.70;;;;;;5054679;28;20497;-65
2021/11/12 03:06:17;;;;;;;21.77;17.03;;;5.90;87.60;;;;;;5054700;28;20576;-65
2021/11/12 03:08:45;;;;;;;25.10;16.50;;;5.90;87.50;;;;;;5054633;28;20810;-65
2021/11/12 03:11:11;;;;;;;20.40;16.53;;;5.90;87.40;;;;;;5054241;28;20453;-65
2021/11/12 03:13:40;;;;;;;18.00;15.00;;;5.90;87.10;;;;;;5054489;28;20469;-65
2021/11/12 03:16:07;;;;;;;18.07;15.67;;;5.90;86.90;;;;;;5054444;28;20441;-65
2021/11/12 03:18:35;;;;;;;20.77;15.17;;;5.90;86.60;;;;;;5054089;28;20468;-65
2021/11/12 03:21:02;;;;;;;20.60;16.43;;;5.90;86.30;;;;;;5054599;28;20453;-65
2021/11/12 03:23:33;;;;;;;20.90;16.03;;;5.90;86.20;;;;;;5054133;28;20474;-65
2021/11/12 03:26:09;;;;;;;18.57;15.93;;;5.80;86.10;;;;;;5054290;28;20553;-65
2021/11/12 03:28:51;;;;;;;23.97;15.77;;;5.80;86.10;;;;;;5054907;28;20429;-65
2021/11/12 04:04:31;;;;;;;31.93;20.53;;;5.40;89.70;;;;;;4953857;29;20457;-66
2021/11/12 04:07:05;;;;;;;33.87;21.00;;;5.40;89.80;;;;;;4953720;29;20581;-66
2021/11/12 04:20:37;;;;;;;34.97;21.97;;;5.30;90.20;;;;;;5049346;28;20434;-66
2021/11/12 05:10:10;;;;;;;27.40;16.63;;;5.40;93.90;;;;;;5053368;28;20908;-65
2021/11/12 05:45:45;;;;;;;39.77;19.10;;;5.40;95.40;;;;;;5056309;28;20464;-66
2021/11/12 05:51:05;;;;;;;37.83;19.07;;;5.50;95.50;;;;;;5056325;28;20420;-66
2021/11/12 05:56:16;;;;;;;37.37;18.20;;;5.50;95.50;;;;;;5056573;28;20917;-64
2021/11/12 05:58:45;;;;;;;41.03;19.13;;;5.60;95.60;;;;;;5055985;28;20964;-65
2021/11/12 06:01:11;;;;;;;37.03;19.20;;;5.60;95.60;;;;;;5055942;28;20437;-64
2021/11/12 06:03:38;;;;;;;37.27;19.70;;;5.60;95.50;;;;;;5055652;28;20479;-64
2021/11/12 06:06:05;;;;;;;37.90;19.80;;;5.70;95.60;;;;;;5055493;28;20477;-64
2021/11/12 06:08:32;;;;;;;35.73;19.40;;;5.70;95.60;;;;;;5055695;28;20496;-65
2021/11/12 06:10:58;;;;;;;38.57;19.07;;;5.70;95.60;;;;;;5056181;28;20799;-65
2021/11/12 06:13:26;;;;;;;37.83;19.17;;;5.80;95.60;;;;;;5055879;28;20469;-65
2021/11/12 06:15:54;;;;;;;33.67;19.60;;;5.80;95.50;;;;;;5055685;28;20446;-65
2021/11/12 06:18:21;;;;;;;35.13;18.23;;;5.80;95.50;;;;;;5055619;28;20446;-65
2021/11/12 06:20:48;;;;;;;27.37;17.13;;;5.90;95.50;;;;;;5055132;28;20955;-65
2021/11/12 06:23:15;;;;;;;32.40;17.40;;;5.90;95.30;;;;;;5055176;28;20461;-65
2021/11/12 06:25:42;;;;;;;34.57;18.10;;;6.00;95.20;;;;;;5055371;28;20475;-65
2021/11/12 06:28:08;;;;;;;32.13;18.20;;;6.00;95.10;;;;;;5055288;28;20889;-65
2021/11/12 06:30:35;;;;;;;32.60;18.73;;;6.00;95.00;;;;;;5055577;28;20453;-65
2021/11/12 06:33:04;;;;;;;39.67;19.23;;;6.00;94.80;;;;;;5055575;28;20450;-65
2021/11/12 06:35:31;;;;;;;29.37;17.67;;;6.10;94.90;;;;;;5055473;28;20454;-66
2021/11/12 06:37:57;;;;;;;36.23;20.10;;;6.10;94.90;;;;;;5055322;28;20452;-65
2021/11/12 06:40:24;;;;;;;35.90;19.70;;;6.10;94.90;;;;;;5055312;28;20448;-65
2021/11/12 06:43:05;;;;;;;35.47;19.70;;;6.10;94.80;;;;;;5054920;28;20457;-65
2021/11/12 06:51:03;;;;;;;37.23;21.33;;;6.10;95.00;;;;;;5055070;28;20409;-65
2021/11/12 06:53:30;;;;;;;37.90;21.87;;;6.10;94.90;;;;;;5054841;28;20465;-65
2021/11/12 06:56:00;;;;;;;34.57;18.37;;;6.10;94.90;;;;;;5055339;28;20452;-65
2021/11/12 06:58:27;;;;;;;37.70;21.40;;;6.10;95.00;;;;;;5054944;28;20455;-65
2021/11/12 07:00:54;;;;;;;40.20;23.17;;;6.10;94.90;;;;;;5054753;28;20543;-65
2021/11/12 07:03:23;;;;;;;41.27;22.57;;;6.10;94.90;;;;;;5054548;28;20477;-65
2021/11/12 07:05:50;;;;;;;39.90;21.63;;;6.10;94.80;;;;;;5054913;28;20539;-65
2021/11/12 07:08:17;;;;;;;37.23;23.77;;;6.10;94.90;;;;;;5054262;28;20956;-65
2021/11/12 07:10:44;;;;;;;39.13;23.10;;;6.10;94.90;;;;;;5054822;28;20430;-65
2021/11/12 07:13:11;;;;;;;37.70;22.43;;;6.10;94.90;;;;;;5055315;28;20469;-65
2021/11/12 07:15:38;;;;;;;37.83;22.97;;;6.20;95.00;;;;;;5054155;28;20456;-65
2021/11/12 07:18:05;;;;;;;47.80;26.07;;;6.10;94.90;;;;;;5054486;28;20503;-65
2021/11/12 07:20:34;;;;;;;36.07;22.53;;;6.20;95.10;;;;;;5055029;28;20460;-65
2021/11/12 07:23:00;;;;;;;34.47;21.53;;;6.20;95.10;;;;;;5053875;28;20452;-65
2021/11/12 07:25:27;;;;;;;36.87;22.33;;;6.20;95.00;;;;;;5054161;28;20454;-65
2021/11/12 07:27:54;;;;;;;36.73;23.67;;;6.10;94.80;;;;;;5054089;28;20485;-65
2021/11/12 07:30:20;;;;;;;37.07;22.40;;;6.10;94.80;;;;;;5054509;28;20940;-65
2021/11/12 07:32:50;;;;;;;34.70;20.93;;;6.20;94.90;;;;;;5053566;28;20941;-65
2021/11/12 07:35:21;;;;;;;33.77;22.77;;;6.20;94.90;;;;;;5053421;28;20453;-65
2021/11/12 07:37:56;;;;;;;45.97;24.47;;;6.10;94.80;;;;;;5054446;28;20465;-65
2021/11/12 07:40:30;;;;;;;36.27;21.90;;;6.10;94.80;;;;;;5054542;28;20429;-65
2021/11/12 07:43:18;;;;;;;37.00;22.50;;;6.10;95.00;;;;;;5054059;28;20464;-65
2021/11/12 07:45:55;;;;;;;42.83;23.53;;;6.10;95.10;;;;;;5054514;28;20469;-65
2021/11/12 07:48:24;;;;;;;37.17;23.90;;;6.10;95.00;;;;;;5054298;28;20530;-65
2021/11/12 07:50:51;;;;;;;39.60;24.63;;;6.10;95.00;;;;;;5054152;28;20484;-65
2021/11/12 07:53:19;;;;;;;39.83;24.43;;;6.10;95.30;;;;;;5053725;28;20465;-65
2021/11/12 07:55:45;;;;;;;35.57;23.33;;;6.20;95.30;;;;;;5053888;28;20461;-65
2021/11/12 07:58:13;;;;;;;39.93;24.73;;;6.20;95.10;;;;;;5053863;28;20523;-65
2021/11/12 08:00:40;;;;;;;39.67;23.43;;;6.20;95.10;;;;;;5053931;28;20449;-65
2021/11/12 08:03:07;;;;;;;35.47;23.20;;;6.20;95.00;;;;;;5053909;28;20469;-65
2021/11/12 08:05:38;;;;;;;40.00;25.07;;;6.20;95.10;;;;;;5053914;28;20446;-65
2021/11/12 08:08:08;;;;;;;37.43;23.43;;;6.30;95.00;;;;;;5054045;28;20465;-65
2021/11/12 08:10:45;;;;;;;38.80;25.10;;;6.30;94.90;;;;;;5053971;28;20521;-65
2021/11/12 08:13:16;;;;;;;46.73;29.30;;;6.40;95.20;;;;;;5053079;28;21001;-65
2021/11/12 08:15:51;;;;;;;53.87;30.50;;;6.30;94.70;;;;;;5053866;28;20433;-65
2021/11/12 08:18:43;;;;;;;55.07;31.07;;;6.30;94.80;;;;;;5054053;28;20426;-66
2021/11/12 08:21:12;;;;;;;51.00;32.60;;;6.30;94.80;;;;;;5053219;28;20906;-65
2021/11/12 08:23:53;;;;;;;49.80;32.53;;;6.30;94.70;;;;;;5053615;28;20465;-65
2021/11/12 08:26:31;;;;;;;63.83;35.60;;;6.30;94.70;;;;;;5053498;28;20483;-64
2021/11/12 08:31:52;;;;;;;58.43;33.87;;;6.40;94.80;;;;;;5052186;28;20483;-65
2021/11/12 08:34:22;;;;;;;54.70;32.57;;;6.40;94.70;;;;;;5053240;28;20461;-65
2021/11/12 08:36:57;;;;;;;53.33;33.60;;;6.50;94.70;;;;;;5053236;28;20442;-64
2021/11/12 08:39:39;;;;;;;52.17;32.73;;;6.50;94.40;;;;;;5053602;28;20512;-65
2021/11/12 08:42:12;;;;;;;55.87;32.43;;;6.60;94.40;;;;;;5053239;28;20894;-64
2021/11/12 08:44:42;;;;;;;56.30;31.70;;;6.60;94.20;;;;;;5054065;28;20465;-64
2021/11/12 08:47:12;;;;;;;53.60;32.80;;;6.60;94.20;;;;;;5057239;28;20470;-64
2021/11/12 08:49:41;;;;;;;52.53;31.90;;;6.70;94.20;;;;;;5057263;28;20576;-65
2021/11/12 08:52:11;;;;;;;50.40;31.97;;;6.70;94.00;;;;;;5057203;28;20453;-66
2021/11/12 08:54:40;;;;;;;52.67;33.73;;;6.70;93.90;;;;;;5057184;28;20862;-66
2021/11/12 08:57:11;;;;;;;53.27;34.57;;;6.80;93.90;;;;;;5057071;28;20473;-66
2021/11/12 08:59:40;;;;;;;55.07;33.23;;;6.80;93.90;;;;;;5057305;28;20434;-66
2021/11/12 09:02:09;;;;;;;48.10;31.30;;;6.80;93.80;;;;;;5057445;28;20454;-67
2021/11/12 09:04:35;;;;;;;49.30;32.40;;;6.80;93.60;;;;;;5056944;28;20468;-67
2021/11/12 09:07:02;;;;;;;49.10;29.23;;;6.90;93.60;;;;;;5056911;28;20551;-66
2021/11/12 09:09:29;;;;;;;58.23;33.80;;;7.00;93.60;;;;;;5057156;28;20502;-66
2021/11/12 09:11:56;;;;;;;59.60;34.90;;;7.00;93.50;;;;;;5056653;28;20445;-66
2021/11/12 09:14:27;;;;;;;49.93;33.77;;;7.10;93.40;;;;;;5056375;28;20469;-67
2021/11/12 09:16:54;;;;;;;61.10;34.40;;;7.10;93.30;;;;;;5056722;28;20426;-66
2021/11/12 09:19:21;;;;;;;48.13;31.57;;;7.20;93.30;;;;;;5056661;28;20452;-67
2021/11/12 09:21:48;;;;;;;53.50;35.60;;;7.30;93.00;;;;;;5056366;28;20453;-67
2021/11/12 09:24:15;;;;;;;59.90;34.33;;;7.30;92.90;;;;;;5056663;28;20465;-67
2021/11/12 09:26:43;;;;;;;49.73;34.17;;;7.40;92.90;;;;;;5055982;28;21030;-67
2021/11/12 09:29:11;;;;;;;46.33;33.50;;;7.50;92.70;;;;;;5056574;28;20449;-67
2021/11/12 09:31:40;;;;;;;51.30;36.33;;;7.60;92.90;;;;;;5056201;28;20452;-67
2021/11/12 09:34:10;;;;;;;52.57;34.30;;;7.70;92.50;;;;;;5056488;28;20473;-67
2021/11/12 09:36:37;;;;;;;42.63;28.50;;;7.80;92.50;;;;;;5056684;28;20471;-67
2021/11/12 09:39:05;;;;;;;40.63;28.07;;;7.90;92.50;;;;;;5056953;28;20460;-67
2021/11/12 09:41:32;;;;;;;39.73;28.13;;;7.90;92.30;;;;;;5057295;28;20460;-67
2021/11/12 09:44:02;;;;;;;38.40;28.40;;;8.00;92.30;;;;;;5056678;28;20461;-67
2021/11/12 09:46:29;;;;;;;39.23;27.13;;;8.10;91.80;;;;;;5056964;28;20441;-67
2021/11/12 09:49:00;;;;;;;43.03;28.10;;;8.20;91.70;;;;;;5056522;28;20453;-67
2021/11/12 09:51:27;;;;;;;42.97;29.47;;;8.40;91.60;;;;;;5056431;28;20434;-67
2021/11/12 09:53:54;;;;;;;39.20;28.60;;;8.50;91.30;;;;;;5056496;28;20465;-67
2021/11/12 09:56:20;;;;;;;41.47;29.70;;;8.50;91.00;;;;;;5055655;28;20449;-67
2021/11/12 09:58:49;;;;;;;42.87;29.43;;;8.60;90.50;;;;;;5056065;28;20472;-68
2021/11/12 10:01:16;;;;;;;38.67;28.53;;;8.60;90.20;;;;;;5055836;28;20457;-68
2021/11/12 10:03:46;;;;;;;43.80;28.37;;;8.60;90.20;;;;;;5055288;28;20472;-67
2021/11/12 10:06:22;;;;;;;41.77;30.37;;;8.70;90.20;;;;;;5054886;28;20450;-67
2021/11/12 10:08:50;;;;;;;44.73;30.07;;;8.70;90.10;;;;;;5055585;28;20511;-67
2021/11/12 10:11:25;;;;;;;44.53;30.40;;;8.80;90.00;;;;;;5056188;28;20476;-67
2021/11/12 10:13:59;;;;;;;41.13;28.93;;;8.80;89.50;;;;;;5056253;28;20503;-67
2021/11/12 10:16:40;;;;;;;43.67;29.30;;;8.80;89.10;;;;;;5055867;28;20426;-67
2021/11/12 10:19:13;;;;;;;37.10;27.57;;;8.80;88.40;;;;;;5055860;28;20440;-67
2021/11/12 10:21:43;;;;;;;36.43;27.27;;;8.70;86.40;;;;;;5055667;28;20426;-67
2021/11/12 10:24:15;;;;;;;30.03;25.77;;;8.60;86.30;;;;;;5055502;28;20461;-67
2021/11/12 10:26:43;;;;;;;35.17;26.87;;;8.40;87.00;;;;;;5055530;28;20437;-67
2021/11/12 10:29:12;;;;;;;33.50;25.50;;;8.20;88.10;;;;;;5054927;28;20898;-67
2021/11/12 10:31:42;;;;;;;31.73;24.30;;;8.20;89.40;;;;;;5055205;28;20449;-67
2021/11/12 10:34:14;;;;;;;34.87;24.43;;;8.20;89.90;;;;;;5055019;28;20461;-67
2021/11/12 10:36:49;;;;;;;30.43;23.90;;;8.30;89.40;;;;;;5055460;28;20946;-67
2021/11/12 10:39:25;;;;;;;30.20;25.10;;;8.40;88.60;;;;;;5055451;28;20445;-67
2021/11/12 10:41:52;;;;;;;26.80;22.93;;;8.40;88.00;;;;;;5055134;28;20515;-67
2021/11/12 10:44:19;;;;;;;34.27;25.80;;;8.50;87.80;;;;;;5055021;28;20477;-67
2021/11/12 10:46:47;;;;;;;27.27;23.20;;;8.60;87.70;;;;;;5055136;28;20441;-67
2021/11/12 10:49:33;;;;;;;27.47;23.67;;;8.70;87.80;;;;;;5054895;28;20937;-67
2021/11/12 10:52:04;;;;;;;26.57;23.47;;;8.90;87.90;;;;;;5055330;28;20430;-67
2021/11/12 10:54:49;;;;;;;30.60;23.77;;;9.10;87.80;;;;;;5054931;28;21019;-67
2021/11/12 10:57:16;;;;;;;26.37;22.60;;;9.30;87.10;;;;;;5055126;28;20426;-67
2021/11/12 11:00:04;;;;;;;34.10;23.50;;;9.50;84.70;;;;;;5055068;28;20444;-67
2021/11/12 11:02:31;;;;;;;29.03;24.90;;;9.60;83.40;;;;;;5055072;28;20426;-67
2021/11/12 11:05:00;;;;;;;27.80;24.10;;;9.70;83.20;;;;;;5054789;28;20470;-67
2021/11/12 11:07:28;;;;;;;23.30;20.80;;;9.80;82.80;;;;;;5054753;28;20513;-67
2021/11/12 11:09:56;;;;;;;25.17;21.20;;;10.20;81.70;;;;;;5054764;28;20464;-67
2021/11/12 11:12:39;;;;;;;29.43;21.63;;;10.60;79.70;;;;;;5054737;28;20458;-67
2021/11/12 11:15:24;;;;;;;23.67;19.57;;;11.00;78.70;;;;;;5054223;28;20478;-67
2021/11/12 11:18:05;;;;;;;23.13;20.67;;;11.60;78.10;;;;;;5054191;28;20438;-67
2021/11/12 11:20:33;;;;;;;21.17;18.70;;;12.20;75.30;;;;;;5054362;28;20441;-67
2021/11/12 11:23:02;;;;;;;21.60;18.33;;;12.80;73.10;;;;;;5054085;28;20937;-67
2021/11/12 11:25:31;;;;;;;20.37;18.30;;;13.30;70.30;;;;;;5054817;28;20453;-68
2021/11/12 11:28:00;;;;;;;20.87;17.37;;;13.90;67.50;;;;;;5054605;28;20481;-68
2021/11/12 11:30:27;;;;;;;20.97;18.93;;;14.40;65.20;;;;;;5054705;28;20446;-68
2021/11/12 11:32:55;;;;;;;20.83;18.63;;;14.90;62.60;;;;;;5054297;28;20446;-68
2021/11/12 11:35:22;;;;;;;20.33;18.33;;;15.40;60.30;;;;;;5054194;28;20442;-68
2021/11/12 11:37:53;;;;;;;20.33;18.30;;;15.70;57.10;;;;;;5054307;28;20442;-67
2021/11/12 11:40:22;;;;;;;20.20;18.20;;;16.00;57.40;;;;;;5053770;28;21030;-67
2021/11/12 11:42:49;;;;;;;20.40;18.30;;;16.30;56.00;;;;;;5053859;28;20485;-67
2021/11/12 11:45:17;;;;;;;19.20;17.17;;;16.60;54.80;;;;;;5053896;28;20968;-68
2021/11/12 11:47:46;;;;;;;17.87;16.10;;;16.80;54.00;;;;;;5054299;28;20481;-67
2021/11/12 11:50:23;;;;;;;19.10;17.33;;;17.10;53.70;;;;;;5054080;28;20898;-67
2021/11/12 11:52:50;;;;;;;17.17;15.50;;;17.50;52.90;;;;;;5054357;28;20437;-67
2021/11/12 11:55:36;;;;;;;18.10;16.40;;;17.80;52.00;;;;;;5054604;28;20452;-67
2021/11/12 11:58:39;;;;;;;18.43;16.53;;;18.10;50.80;;;;;;5054947;28;20430;-68
2021/11/12 12:01:37;;;;;;;20.50;16.43;;;18.50;50.10;;;;;;5054580;28;20448;-68
2021/11/12 12:04:27;;;;;;;16.90;15.30;;;18.80;49.30;;;;;;5054038;28;20492;-67
2021/11/12 12:07:30;;;;;;;17.33;15.73;;;19.10;48.60;;;;;;5051052;28;20453;-67
2021/11/12 12:10:16;;;;;;;16.80;15.20;;;19.30;47.70;;;;;;5054634;28;20444;-67
2021/11/12 12:13:05;;;;;;;17.30;15.60;;;19.60;46.80;;;;;;5053066;28;20436;-67
2021/11/12 12:15:44;;;;;;;16.40;14.80;;;19.80;46.00;;;;;;5054056;28;20446;-68
2021/11/12 12:18:26;;;;;;;14.87;13.50;;;19.90;46.00;;;;;;5054270;28;20426;-68
2021/11/12 12:21:38;;;;;;;15.70;14.30;;;20.10;45.40;;;;;;5053215;28;20922;-68
2021/11/12 12:33:21;;;;;;;17.10;15.60;;;20.20;43.50;;;;;;5053069;28;20888;-68
2021/11/12 13:22:55;;;;;;;15.83;14.27;;;18.60;47.20;;;;;;5052600;28;20880;-68
2021/11/12 13:25:29;;;;;;;16.33;14.13;;;18.70;47.10;;;;;;5052816;28;20429;-68
2021/11/12 13:28:23;;;;;;;16.47;14.77;;;18.60;47.30;;;;;;5052327;28;20476;-67
2021/11/12 13:30:53;;;;;;;18.27;16.47;;;18.40;47.50;;;;;;5042668;28;20458;-67
2021/11/12 13:33:35;;;;;;;16.53;14.90;;;18.10;47.50;;;;;;5055262;28;20524;-67
2021/11/12 13:36:07;;;;;;;16.47;14.80;;;18.00;48.20;;;;;;5056314;28;20426;-67
2021/11/12 13:38:40;;;;;;;17.30;15.43;;;17.80;48.70;;;;;;5055991;28;20432;-68
2021/11/12 13:41:09;;;;;;;17.40;15.50;;;17.60;49.00;;;;;;5056248;28;20429;-67
2021/11/12 13:43:38;;;;;;;15.53;13.90;;;17.40;49.60;;;;;;5055614;28;20484;-67
2021/11/12 13:46:05;;;;;;;16.80;15.10;;;17.20;50.30;;;;;;5055922;28;20433;-67
2021/11/12 13:48:46;;;;;;;17.00;15.20;;;17.00;51.00;;;;;;5055991;28;20488;-67
2021/11/12 13:51:16;;;;;;;17.20;15.40;;;16.80;51.40;;;;;;5055444;28;20460;-67
2021/11/12 13:53:48;;;;;;;16.47;14.67;;;16.60;52.00;;;;;;5055720;28;20477;-68
2021/11/12 13:56:15;;;;;;;17.50;15.30;;;16.50;52.60;;;;;;5055432;28;20433;-67
2021/11/12 13:58:45;;;;;;;18.87;16.83;;;16.30;52.80;;;;;;5055961;28;20634;-67
2021/11/12 14:01:19;;;;;;;18.27;15.60;;;16.10;53.00;;;;;;5055757;28;20450;-67
2021/11/12 14:03:46;;;;;;;17.53;15.73;;;16.00;53.60;;;;;;5055566;28;20473;-68
2021/11/12 14:06:14;;;;;;;18.20;15.40;;;15.80;54.00;;;;;;5055656;28;20553;-67
2021/11/12 14:08:43;;;;;;;19.07;15.73;;;15.60;54.30;;;;;;5055723;28;20588;-67
2021/11/12 14:11:20;;;;;;;20.20;15.87;;;15.50;54.80;;;;;;5055502;28;20540;-67
2021/11/12 14:13:48;;;;;;;19.07;17.07;;;15.40;55.00;;;;;;5055471;28;20472;-67
2021/11/12 14:16:18;;;;;;;17.63;15.83;;;15.20;55.20;;;;;;5055465;28;20485;-67
2021/11/12 14:19:15;;;;;;;18.33;16.43;;;15.10;55.70;;;;;;5054876;28;21044;-67
2021/11/12 14:21:45;;;;;;;17.40;15.60;;;15.00;56.10;;;;;;5054512;28;20757;-67
2021/11/12 14:24:30;;;;;;;17.50;15.80;;;14.90;56.50;;;;;;5054756;28;20860;-67
2021/11/12 14:27:04;;;;;;;20.47;17.63;;;14.80;56.90;;;;;;5055312;28;20441;-67
2021/11/12 14:30:06;;;;;;;18.67;16.40;;;14.70;57.20;;;;;;5055010;28;20468;-67
2021/11/12 14:35:27;;;;;;;22.60;18.20;;;14.40;57.80;;;;;;5034955;28;20433;-67
2021/11/12 14:38:13;;;;;;;19.67;16.60;;;14.30;58.00;;;;;;5055344;28;20433;-66
2021/11/12 14:43:47;;;;;;;22.03;16.93;;;14.10;58.90;;;;;;5053361;28;20469;-67
2021/11/12 14:46:19;;;;;;;16.40;14.70;;;13.90;59.10;;;;;;5055553;28;20971;-67
2021/11/12 14:49:01;;;;;;;17.83;16.03;;;13.80;59.50;;;;;;5055524;28;20557;-66
2021/11/12 14:51:37;;;;;;;17.00;15.20;;;13.70;59.80;;;;;;5055723;28;20434;-66
2021/11/12 14:54:06;;;;;;;19.23;16.63;;;13.50;60.20;;;;;;5054648;28;20560;-66
2021/11/12 14:56:33;;;;;;;19.50;15.93;;;13.40;60.70;;;;;;5054913;28;20484;-66
2021/11/12 14:59:03;;;;;;;17.40;15.57;;;13.30;61.30;;;;;;5054624;28;20446;-66
2021/11/12 15:01:33;;;;;;;17.43;14.40;;;13.20;61.60;;;;;;5054588;28;20440;-66
2021/11/12 15:04:00;;;;;;;19.43;16.40;;;13.10;62.00;;;;;;5054231;28;20465;-66
2021/11/12 15:06:28;;;;;;;16.77;15.07;;;13.00;62.50;;;;;;5054004;28;20951;-66
2021/11/12 15:08:59;;;;;;;19.50;16.67;;;12.90;62.90;;;;;;5054456;28;20552;-66
2021/11/12 15:11:28;;;;;;;17.30;15.50;;;12.80;63.30;;;;;;5054414;28;20437;-66
2021/11/12 15:14:03;;;;;;;19.63;14.83;;;12.60;63.60;;;;;;5053759;28;20987;-66
2021/11/12 15:16:33;;;;;;;17.90;16.10;;;12.50;64.00;;;;;;5053506;28;20440;-66
2021/11/12 15:19:02;;;;;;;17.33;15.03;;;12.40;64.40;;;;;;5053584;28;20488;-66
2021/11/12 15:21:32;;;;;;;19.93;15.23;;;12.40;64.90;;;;;;5054687;28;20484;-66
2021/11/12 15:24:06;;;;;;;18.17;16.17;;;12.30;65.30;;;;;;5054882;28;20480;-66
2021/11/12 15:26:46;;;;;;;19.67;14.57;;;12.20;65.90;;;;;;5054902;28;20432;-66
2021/11/12 15:29:16;;;;;;;18.10;16.10;;;12.10;66.30;;;;;;5054065;28;20470;-66
2021/11/12 15:31:53;;;;;;;19.50;15.33;;;12.00;66.70;;;;;;5054060;28;20441;-66
2021/11/12 15:34:20;;;;;;;17.60;14.67;;;11.90;67.10;;;;;;5054345;28;20472;-66
2021/11/12 15:36:55;;;;;;;18.80;15.47;;;11.80;67.50;;;;;;5053898;28;20437;-66
2021/11/12 15:39:30;;;;;;;18.33;15.50;;;11.70;67.90;;;;;;5053785;28;20980;-66
2021/11/12 15:44:38;;;;;;;17.27;15.00;;;11.60;68.80;;;;;;5030839;28;20541;-66
2021/11/12 15:47:08;;;;;;;19.67;16.83;;;11.50;69.20;;;;;;5054561;28;20964;-66
2021/11/12 15:49:38;;;;;;;21.40;19.10;;;11.50;70.40;;;;;;5054590;28;20487;-66
2021/11/12 15:52:08;;;;;;;19.47;17.53;;;11.40;69.90;;;;;;5055100;28;20456;-66
2021/11/12 15:54:54;;;;;;;21.00;18.80;;;11.30;69.90;;;;;;5053579;28;20477;-66
2021/11/12 16:00:11;;;;;;;19.70;16.57;;;11.10;70.80;;;;;;5050476;28;20422;-66
2021/11/12 16:05:41;;;;;;;20.30;17.00;;;10.90;71.60;;;;;;5043101;28;20445;-66
2021/11/12 16:08:17;;;;;;;19.03;16.57;;;10.90;72.10;;;;;;5054109;28;20457;-67
2021/11/12 16:11:09;;;;;;;18.03;15.90;;;10.80;72.40;;;;;;5054074;28;20434;-67
2021/11/12 16:13:38;;;;;;;18.17;16.23;;;10.80;72.70;;;;;;5054240;28;20900;-68
2021/11/12 16:16:32;;;;;;;20.27;16.40;;;10.70;73.00;;;;;;5054359;28;20489;-68
2021/11/12 16:19:05;;;;;;;17.93;15.80;;;10.60;73.30;;;;;;5054796;28;20513;-68
2021/11/12 16:21:43;;;;;;;18.47;16.47;;;10.60;73.70;;;;;;5054110;28;20437;-68
2021/11/12 16:24:24;;;;;;;20.87;16.80;;;10.50;73.90;;;;;;5054159;28;20568;-68
2021/11/12 16:26:55;;;;;;;18.10;14.80;;;10.50;74.30;;;;;;5054104;28;20517;-67
2021/11/12 16:29:34;;;;;;;17.40;14.90;;;10.50;74.60;;;;;;5053917;28;20474;-67
2021/11/12 16:32:02;;;;;;;18.80;15.97;;;10.40;74.70;;;;;;5053679;28;20487;-68
2021/11/12 16:34:35;;;;;;;16.80;14.93;;;10.40;75.00;;;;;;5053675;28;20503;-68
2021/11/12 16:37:02;;;;;;;20.23;15.87;;;10.30;75.20;;;;;;5053494;28;20838;-68
2021/11/12 16:39:33;;;;;;;23.10;17.07;;;10.30;75.60;;;;;;5053995;28;20480;-68
2021/11/12 16:42:10;;;;;;;19.23;15.87;;;10.30;75.80;;;;;;5053911;28;20466;-68
2021/11/12 16:44:42;;;;;;;20.43;15.03;;;10.20;75.90;;;;;;5054233;28;20476;-68